福島 の空港の天気 - METARとTAF

福島空港 ( RJSF / FKS ) - 福島県玉川村
飛行場実況気象(Metar)
観測時間08/01 15:05 JST (08/01 06:05 UTC)
風向・風速南西 4m/s
視程10km以上
天気現象雷 周辺でしゅう雨
少しの雲 雲底高度 610m
全天の4割程度の雲 雲底高度 910m
全天の8割程度の雲 雲底高度 1070m
気温28℃
湿度74%
気圧1004hPa
METARRJSF 010605Z 23008KT 200V270 9999 TS VCSH FEW020 SCT030CB BKN035 28/23 Q1004 RMK 1CU020 3CB030 5CU035 A2965 FBL TS 10KM E AND 15KM SW-NW MOV N
過去の天気等 Google飛行場航空写真 Wunderground天気予報

過去48時間のMETAR

飛行場予報(TAF)
発表時間: 8/01 14:05 JST (8/01 05:05 UTC)
予報対象時間: 1日15時 JST ~ 2日21時 JST
風向・風速西 2m/s
視程8000m
天気現象弱いしゅう雨
少しの雲 雲底高度 300m
全天の4割程度の雲 雲底高度 610m
全天の8割程度の雲 雲底高度 910m
1日15時 JST ~ 1日17時 JST に徐々に
風向・風速南 3m/s
1日15時 JST ~ 1日20時 JST に一時的に
視程3000m
天気現象雷雨 もや
少しの雲 雲底高度 300m
全天の4割程度の雲 雲底高度 610m
全天の8割程度の雲 雲底高度 910m
少しの積乱雲 雲底高度 910m
TAF RJSF 010505Z 0106/0212 28004KT 8000 -SHRA FEW010 SCT020 BKN030
BECMG 0106/0108 19005KT
TEMPO 0106/0111 3000 TSRA BR FEW010 SCT020 BKN030 FEW030CB
日本の空港のMETAR・TAFへのリンク

RJTT 東京国際空港
RJAA 新東京国際空港
RJBB 関西国際空港
RJOO 大阪空港
RJGG 中部国際空港
RJCC 新千歳空港
RJFF 福岡空港
ROAH 那覇空港


RJEC 旭川空港
RJCH 函館空港
RJCK 釧路空港
RJCM 女満別空港
RJCB 帯広空港
RJSA 青森空港
RJSS 仙台空港
RJSK 秋田空港
RJSF 福島空港
RJAH 茨城空港
RJSN 新潟空港
RJNT 富山空港
RJNK 小松飛行場
RJNS 静岡空港
RJOH 美保飛行場
RJOC 出雲空港
RJOB 岡山空港
RJOA 広島空港
RJOI 岩国飛行場
RJOT 高松空港
RJOM 松山空港
RJOK 高知空港
RJFR 北九州空港
RJFT 熊本空港
RJFU 長崎空港
RJFS 佐賀空港
RJFO 大分空港
RJFM 宮崎空港
RJFK 鹿児島空港
ROIG 石垣島空港
RJTY 横田飛行場
ROTM 普天間飛行場
RODN 嘉手納飛行場